Time;durP1;ratioP1;P1;durP2;ratioP2;P2;SDS_P1;SDS_P2;PMS_P1;PMS_P2;Temp;Humidity;BMP_temperature;BMP_pressure;BME280_temperature;BME280_humidity;BME280_pressure;Samples;Min_cycle;Max_cycle;Signal;HPM_P1;HPM_P2
2021/12/15 00:01:10;;;;;;;;;;;51.30;2227.20;;;;;;5070264;28;20352;-76
2021/12/15 00:03:36;;;;;;;;;;;51.50;2227.20;;;;;;5070141;28;19904;-75
2021/12/15 00:06:03;;;;;;;;;;;51.20;2227.20;;;;;;5070228;28;20039;-75
2021/12/15 00:08:29;;;;;;;;;;;26.50;2201.60;;;;;;5070081;28;19911;-74
2021/12/15 00:10:55;;;;;;;;;;;51.20;2227.20;;;;;;5069983;28;19912;-74
2021/12/15 00:13:22;;;;;;;;;;;51.40;2227.20;;;;;;5070101;28;20315;-75
2021/12/15 00:15:48;;;;;;;;;;;51.50;2227.20;;;;;;5070123;28;19934;-74
2021/12/15 00:18:14;;;;;;;;;;;51.70;2227.20;;;;;;5071148;28;19920;-75
2021/12/15 00:20:41;;;;;;;;;;;51.80;2227.20;;;;;;5069788;28;19920;-76
2021/12/15 00:23:08;;;;;;;;;;;52.00;2227.20;;;;;;5071216;28;20011;-75
2021/12/15 00:25:35;;;;;;;;;;;51.90;2227.20;;;;;;5070112;28;20415;-76
2021/12/15 00:28:00;;;;;;;;;;;52.00;2227.20;;;;;;5069971;28;19950;-75
2021/12/15 00:30:27;;;;;;;;;;;51.60;2227.20;;;;;;5071227;28;19908;-75
2021/12/15 00:32:53;;;;;;;;;;;51.50;2227.20;;;;;;5070972;28;19912;-74
2021/12/15 00:35:19;;;;;;;;;;;51.60;2227.20;;;;;;5066626;28;19939;-75
2021/12/15 00:37:45;;;;;;;;;;;51.30;2227.20;;;;;;5073462;28;20367;-74
2021/12/15 00:40:12;;;;;;;;;;;51.40;2227.20;;;;;;5074050;28;19956;-75
2021/12/15 00:42:39;;;;;;;;;;;51.60;2227.20;;;;;;5075847;28;20373;-75
2021/12/15 00:45:05;;;;;;;;;;;51.60;2227.20;;;;;;5076233;28;19904;-75
2021/12/15 00:47:31;;;;;;;;;;;51.60;2227.20;;;;;;5075486;28;19908;-75
2021/12/15 00:49:56;;;;;;;;;;;51.80;2227.20;;;;;;5073816;28;19909;-75
2021/12/15 00:52:22;;;;;;;;;;;52.00;2227.20;;;;;;5073702;28;19905;-76
2021/12/15 00:54:48;;;;;;;;;;;51.70;2227.20;;;;;;5074843;28;19912;-75
2021/12/15 00:57:13;;;;;;;;;;;51.60;2227.20;;;;;;5074745;28;19908;-75
2021/12/15 00:59:39;;;;;;;;;;;52.00;2227.20;;;;;;5074638;28;19998;-75
2021/12/15 01:02:05;;;;;;;;;;;51.60;2227.20;;;;;;5074748;28;19908;-75
2021/12/15 01:04:31;;;;;;;;;;;51.80;2227.20;;;;;;5074727;28;19911;-75
2021/12/15 01:06:58;;;;;;;;;;;51.90;2227.20;;;;;;5074739;28;20346;-75
2021/12/15 01:09:31;;;;;;;;;;;51.90;2227.20;;;;;;5073115;28;19965;-75
2021/12/15 01:12:17;;;;;;;;;;;52.10;2227.20;;;;;;5076201;28;20258;-75
2021/12/15 01:20:22;;;;;;;;;;;76.90;2227.20;;;;;;5086099;28;20215;-76
2021/12/15 01:22:49;;;;;;;;;;;76.90;2227.20;;;;;;5085115;28;19904;-76
2021/12/15 01:25:18;;;;;;;;;;;77.00;2227.20;;;;;;5083329;28;19966;-76
2021/12/15 01:27:44;;;;;;;;;;;77.00;2227.20;;;;;;5081697;28;19936;-76
2021/12/15 01:30:12;;;;;;;;;;;52.10;2227.20;;;;;;5086805;28;20667;-75
2021/12/15 01:32:38;;;;;;;;;;;52.00;2227.20;;;;;;5084213;28;19927;-75
2021/12/15 01:35:04;;;;;;;;;;;51.90;2227.20;;;;;;5074070;28;20369;-75
2021/12/15 01:37:29;;;;;;;;;;;52.00;2227.20;;;;;;5080549;28;19904;-75
2021/12/15 01:39:56;;;;;;;;;;;52.10;2227.20;;;;;;5082837;28;19908;-75
2021/12/15 01:42:24;;;;;;;;;;;76.90;2227.20;;;;;;5083693;28;19909;-76
2021/12/15 01:47:34;;;;;;;;;;;76.80;2227.20;;;;;;5083363;28;20365;-75
2021/12/15 01:50:00;;;;;;;;;;;51.50;2227.20;;;;;;5082361;28;19920;-75
2021/12/15 01:52:33;;;;;;;;;;;51.70;2227.20;;;;;;5084374;28;20260;-75
2021/12/15 01:55:01;;;;;;;;;;;51.90;2227.20;;;;;;5084412;28;19935;-74
2021/12/15 01:57:28;;;;;;;;;;;52.10;2227.20;;;;;;5074842;28;19915;-76
2021/12/15 01:59:56;;;;;;;;;;;51.70;2227.20;;;;;;5099962;28;19908;-76
2021/12/15 02:02:21;;;;;;;;;;;51.80;2227.20;;;;;;5084518;28;20386;-75
2021/12/15 02:04:48;;;;;;;;;;;51.60;2227.20;;;;;;5081610;28;19955;-74
2021/12/15 02:07:16;;;;;;;;;;;51.70;2227.20;;;;;;5085676;28;20353;-75
2021/12/15 02:12:34;;;;;;;;;;;51.70;2227.20;;;;;;5070222;28;19973;-75
2021/12/15 02:15:02;;;;;;;;;;;51.50;2227.20;;;;;;5072428;28;19912;-76
2021/12/15 02:17:27;;;;;;;;;;;51.50;2227.20;;;;;;5071297;28;19973;-73
2021/12/15 02:19:53;;;;;;;;;;;51.70;2227.20;;;;;;5072050;28;19951;-76
2021/12/15 02:22:18;;;;;;;;;;;51.70;2227.20;;;;;;5071704;28;20392;-76
2021/12/15 02:24:48;;;;;;;;;;;51.90;2227.20;;;;;;5071728;28;19915;-75
2021/12/15 02:27:14;;;;;;;;;;;51.70;2227.20;;;;;;5055170;28;19904;-75
2021/12/15 02:29:42;;;;;;;;;;;51.70;2227.20;;;;;;5054902;28;19989;-75
2021/12/15 02:32:31;;;;;;;;;;;76.80;2227.20;;;;;;5069320;28;19911;-75
2021/12/15 02:37:23;;;;;;;;;;;51.90;2227.20;;;;;;5071434;28;19908;-75
2021/12/15 02:39:56;;;;;;;;;;;52.00;2227.20;;;;;;5071610;28;19995;-76
2021/12/15 02:42:24;;;;;;;;;;;76.90;2227.20;;;;;;5054631;28;19912;-75
2021/12/15 02:44:50;;;;;;;;;;;77.00;2227.20;;;;;;5071755;28;19904;-76
2021/12/15 02:47:17;;;;;;;;;;;77.20;2227.20;;;;;;5071036;28;19919;-74
2021/12/15 02:49:43;;;;;;;;;;;76.90;2227.20;;;;;;5074271;28;19908;-75
2021/12/15 02:52:09;;;;;;;;;;;52.10;2227.20;;;;;;5071955;28;19930;-76
2021/12/15 02:54:35;;;;;;;;;;;51.80;2227.20;;;;;;5075053;28;19922;-75
2021/12/15 02:57:06;;;;;;;;;;;76.90;2227.20;;;;;;5083299;28;20280;-75
2021/12/15 02:59:42;;;;;;;;;;;76.90;2227.20;;;;;;5083018;28;20277;-76
2021/12/15 03:05:05;;;;;;;;;;;52.10;2227.20;;;;;;5080647;28;19957;-74
2021/12/15 03:07:39;;;;;;;;;;;77.00;2227.20;;;;;;5078327;28;19936;-76
2021/12/15 03:15:35;;;;;;;;;;;76.80;2227.20;;;;;;5081333;28;20021;-75
2021/12/15 03:18:03;;;;;;;;;;;77.00;2227.20;;;;;;5081219;28;20380;-76
2021/12/15 03:20:30;;;;;;;;;;;77.20;2227.20;;;;;;5095246;28;20338;-75
2021/12/15 03:22:57;;;;;;;;;;;77.30;2227.20;;;;;;5081693;28;19904;-74
2021/12/15 03:25:25;;;;;;;;;;;77.50;2227.20;;;;;;5082736;28;19915;-75
2021/12/15 03:38:45;;;;;;;;;;;52.10;2227.20;;;;;;5052835;28;19966;-75
2021/12/15 03:41:11;;;;;;;;;;;77.10;2227.20;;;;;;5081092;28;19954;-75
2021/12/15 03:43:37;;;;;;;;;;;77.30;2227.20;;;;;;5082545;28;19941;-75
2021/12/15 03:46:04;;;;;;;;;;;77.00;2227.20;;;;;;5076605;28;19950;-75
2021/12/15 03:48:31;;;;;;;;;;;77.20;2227.20;;;;;;5078739;28;20296;-77
2021/12/15 03:50:58;;;;;;;;;;;77.30;2227.20;;;;;;5080719;28;19946;-75
2021/12/15 03:53:24;;;;;;;;;;;77.20;2227.20;;;;;;5081365;28;19908;-76
2021/12/15 03:55:50;;;;;;;;;;;77.20;2227.20;;;;;;5078436;28;20357;-76
2021/12/15 03:58:16;;;;;;;;;;;77.20;2227.20;;;;;;5083360;28;19981;-76
2021/12/15 04:00:44;;;;;;;;;;;77.20;2227.20;;;;;;5083252;28;20408;-75
2021/12/15 04:03:20;;;;;;;;;;;77.00;2227.20;;;;;;5080225;28;19905;-75
2021/12/15 04:05:46;;;;;;;;;;;77.20;2227.20;;;;;;5079346;28;19904;-75
2021/12/15 04:08:11;;;;;;;;;;;76.90;2227.20;;;;;;5083119;28;19957;-75
2021/12/15 04:10:37;;;;;;;;;;;76.90;2227.20;;;;;;5081938;28;19904;-75
2021/12/15 04:13:04;;;;;;;;;;;51.80;2227.20;;;;;;5080060;28;19915;-76
2021/12/15 04:15:40;;;;;;;;;;;51.90;2227.20;;;;;;5079803;28;19947;-75
2021/12/15 04:18:06;;;;;;;;;;;51.60;2227.20;;;;;;5080712;28;20381;-76
2021/12/15 04:20:34;;;;;;;;;;;51.80;2227.20;;;;;;5081585;28;19962;-76
2021/12/15 04:23:00;;;;;;;;;;;52.10;2227.20;;;;;;5081323;28;19904;-75
2021/12/15 04:25:31;;;;;;;;;;;51.70;2227.20;;;;;;5083343;28;19908;-75
2021/12/15 04:28:17;;;;;;;;;;;51.70;2227.20;;;;;;5079807;28;19915;-77
2021/12/15 04:30:48;;;;;;;;;;;51.80;2227.20;;;;;;5081001;28;20304;-75
2021/12/15 04:33:21;;;;;;;;;;;51.60;2227.20;;;;;;5077930;28;20381;-76
2021/12/15 04:35:49;;;;;;;;;;;51.60;2227.20;;;;;;5079701;28;19955;-75
2021/12/15 04:38:14;;;;;;;;;;;51.80;2227.20;;;;;;5082746;28;19904;-75
2021/12/15 04:40:41;;;;;;;;;;;51.40;2227.20;;;;;;5080918;28;20281;-75
2021/12/15 04:43:07;;;;;;;;;;;26.50;2201.60;;;;;;5079636;28;19905;-75
2021/12/15 04:45:32;;;;;;;;;;;51.50;2227.20;;;;;;5081019;28;19912;-76
2021/12/15 04:47:58;;;;;;;;;;;51.70;2227.20;;;;;;5082451;28;19995;-75
2021/12/15 04:50:26;;;;;;;;;;;51.60;2227.20;;;;;;5082933;28;19915;-76
2021/12/15 04:52:52;;;;;;;;;;;51.50;2227.20;;;;;;5082596;28;19958;-75
2021/12/15 04:55:18;;;;;;;;;;;51.50;2227.20;;;;;;5081503;28;19915;-75
2021/12/15 04:57:43;;;;;;;;;;;51.50;2227.20;;;;;;5080177;28;20003;-76
2021/12/15 05:00:13;;;;;;;;;;;51.70;2227.20;;;;;;5081677;28;19942;-76
2021/12/15 05:02:39;;;;;;;;;;;51.90;2227.20;;;;;;5080110;28;19970;-76
2021/12/15 05:05:05;;;;;;;;;;;51.80;2227.20;;;;;;5076989;28;20392;-75
2021/12/15 05:07:31;;;;;;;;;;;52.00;2227.20;;;;;;5077295;28;19911;-75
2021/12/15 05:09:56;;;;;;;;;;;52.10;2227.20;;;;;;5081052;28;19904;-74
2021/12/15 05:12:22;;;;;;;;;;;76.80;2227.20;;;;;;5081455;28;19930;-76
2021/12/15 05:14:49;;;;;;;;;;;51.90;2227.20;;;;;;5081213;28;19942;-75
2021/12/15 05:17:15;;;;;;;;;;;51.80;2227.20;;;;;;5076967;28;19916;-75
2021/12/15 05:19:42;;;;;;;;;;;51.80;2227.20;;;;;;5078890;28;20003;-75
2021/12/15 05:22:09;;;;;;;;;;;52.00;2227.20;;;;;;5075691;28;19904;-76
2021/12/15 05:24:35;;;;;;;;;;;76.80;2227.20;;;;;;5081431;28;19919;-75
2021/12/15 05:27:09;;;;;;;;;;;76.90;2227.20;;;;;;5085388;28;19904;-75
2021/12/15 05:29:36;;;;;;;;;;;77.00;2227.20;;;;;;5097145;28;19973;-75
2021/12/15 05:32:02;;;;;;;;;;;76.90;2227.20;;;;;;5084129;28;19983;-75
2021/12/15 05:34:28;;;;;;;;;;;51.90;2227.20;;;;;;5085454;28;19951;-75
2021/12/15 05:36:54;;;;;;;;;;;51.80;2227.20;;;;;;5082021;28;20384;-77
2021/12/15 05:39:20;;;;;;;;;;;51.50;2227.20;;;;;;5084090;28;19908;-75
2021/12/15 05:41:46;;;;;;;;;;;52.00;2227.20;;;;;;5083356;28;19960;-75
2021/12/15 05:44:12;;;;;;;;;;;76.90;2227.20;;;;;;5087591;28;19995;-75
2021/12/15 05:46:38;;;;;;;;;;;77.00;2227.20;;;;;;5084310;28;20367;-75
2021/12/15 05:49:04;;;;;;;;;;;77.10;2227.20;;;;;;5085081;28;19908;-76
2021/12/15 05:51:29;;;;;;;;;;;77.10;2227.20;;;;;;5076220;28;19992;-75
2021/12/15 05:53:55;;;;;;;;;;;76.80;2227.20;;;;;;5080763;28;19971;-76
2021/12/15 05:56:21;;;;;;;;;;;52.10;2227.20;;;;;;5086331;28;19915;-76
2021/12/15 05:58:46;;;;;;;;;;;77.00;2227.20;;;;;;5084101;28;20424;-75
2021/12/15 06:01:12;;;;;;;;;;;77.00;2227.20;;;;;;5085474;28;19918;-75
2021/12/15 06:03:38;;;;;;;;;;;77.20;2227.20;;;;;;5083854;28;19904;-76
2021/12/15 06:06:04;;;;;;;;;;;77.10;2227.20;;;;;;5081839;28;20290;-76
2021/12/15 06:08:29;;;;;;;;;;;77.20;2227.20;;;;;;5079427;28;19908;-75
2021/12/15 06:10:55;;;;;;;;;;;76.90;2227.20;;;;;;5078839;28;19951;-76
2021/12/15 06:13:26;;;;;;;;;;;77.10;2227.20;;;;;;5084532;28;20823;-75
2021/12/15 06:15:52;;;;;;;;;;;76.90;2227.20;;;;;;5084293;28;19916;-75
2021/12/15 06:18:18;;;;;;;;;;;51.90;2227.20;;;;;;5085236;28;20006;-76
2021/12/15 06:20:45;;;;;;;;;;;52.00;2227.20;;;;;;5082943;28;19931;-76
2021/12/15 06:23:16;;;;;;;;;;;51.40;2227.20;;;;;;5083140;28;19950;-75
2021/12/15 06:25:42;;;;;;;;;;;51.80;2227.20;;;;;;5080269;28;20292;-74
2021/12/15 06:28:08;;;;;;;;;;;52.10;2227.20;;;;;;5081437;28;19904;-76
2021/12/15 06:30:34;;;;;;;;;;;76.90;2227.20;;;;;;5084711;28;19907;-76
2021/12/15 06:33:00;;;;;;;;;;;52.00;2227.20;;;;;;5078170;28;20406;-75
2021/12/15 06:35:25;;;;;;;;;;;52.10;2227.20;;;;;;5084029;28;20457;-75
2021/12/15 06:37:51;;;;;;;;;;;52.00;2227.20;;;;;;5081851;28;19908;-75
2021/12/15 06:40:16;;;;;;;;;;;51.60;2227.20;;;;;;5082412;28;19936;-75
2021/12/15 06:42:42;;;;;;;;;;;51.50;2227.20;;;;;;5084334;28;19904;-75
2021/12/15 06:45:11;;;;;;;;;;;51.90;2227.20;;;;;;5084744;28;20029;-75
2021/12/15 06:58:27;;;;;;;;;;;76.80;2227.20;;;;;;5082384;28;19911;-76
2021/12/15 07:00:55;;;;;;;;;;;76.80;2227.20;;;;;;5081081;28;19904;-76
2021/12/15 07:03:21;;;;;;;;;;;52.10;2227.20;;;;;;5073816;28;19912;-77
2021/12/15 07:05:46;;;;;;;;;;;76.90;2227.20;;;;;;5073695;28;19904;-74
2021/12/15 07:08:13;;;;;;;;;;;76.90;2227.20;;;;;;5083042;28;19912;-76
2021/12/15 07:10:41;;;;;;;;;;;76.90;2227.20;;;;;;5082944;28;19908;-75
2021/12/15 07:13:07;;;;;;;;;;;52.00;2227.20;;;;;;5083447;28;19912;-75
2021/12/15 07:15:34;;;;;;;;;;;51.80;2227.20;;;;;;5088459;28;19991;-75
2021/12/15 07:18:05;;;;;;;;;;;51.90;2227.20;;;;;;5092244;28;19916;-76
2021/12/15 07:20:42;;;;;;;;;;;76.80;2227.20;;;;;;5093852;28;19960;-77
2021/12/15 07:23:10;;;;;;;;;;;52.10;2227.20;;;;;;5093642;28;19919;-75
2021/12/15 07:25:37;;;;;;;;;;;51.70;2227.20;;;;;;5091558;28;20363;-75
2021/12/15 07:28:03;;;;;;;;;;;51.70;2227.20;;;;;;5093723;28;19915;-74
2021/12/15 07:30:29;;;;;;;;;;;51.30;2227.20;;;;;;5088010;28;20280;-74
2021/12/15 07:32:55;;;;;;;;;;;51.50;2227.20;;;;;;5081774;28;19912;-74
2021/12/15 07:35:21;;;;;;;;;;;51.40;2227.20;;;;;;5081663;28;19908;-75
2021/12/15 07:37:47;;;;;;;;;;;51.70;2227.20;;;;;;5079855;28;19915;-75
2021/12/15 07:40:19;;;;;;;;;;;51.60;2227.20;;;;;;5084485;28;20785;-74
2021/12/15 07:42:56;;;;;;;;;;;51.40;2227.20;;;;;;5081698;28;19994;-74
2021/12/15 07:45:23;;;;;;;;;;;51.60;2227.20;;;;;;5072669;28;19951;-75
2021/12/15 07:47:50;;;;;;;;;;;51.70;2227.20;;;;;;5072743;28;19940;-75
2021/12/15 07:50:16;;;;;;;;;;;52.10;2227.20;;;;;;5072072;28;19912;-75
2021/12/15 07:52:41;;;;;;;;;;;76.90;2227.20;;;;;;5078563;28;20341;-75
2021/12/15 07:55:07;;;;;;;;;;;52.00;2227.20;;;;;;5078711;28;20003;-75
2021/12/15 07:57:33;;;;;;;;;;;51.90;2227.20;;;;;;5080556;28;19927;-76
2021/12/15 07:59:58;;;;;;;;;;;51.80;2227.20;;;;;;5082476;28;19904;-75
2021/12/15 08:02:25;;;;;;;;;;;51.70;2227.20;;;;;;5074815;28;19909;-79
2021/12/15 08:04:51;;;;;;;;;;;52.00;2227.20;;;;;;5071060;28;19949;-76
2021/12/15 08:07:17;;;;;;;;;;;76.80;2227.20;;;;;;5072556;28;20354;-74
2021/12/15 08:09:45;;;;;;;;;;;76.90;2227.20;;;;;;5072116;28;20463;-74
2021/12/15 08:12:10;;;;;;;;;;;52.10;2227.20;;;;;;5069746;28;19937;-75
2021/12/15 08:14:36;;;;;;;;;;;77.10;2227.20;;;;;;5071470;28;19912;-75
2021/12/15 08:17:02;;;;;;;;;;;77.30;2227.20;;;;;;5071295;28;19951;-74
2021/12/15 08:19:27;;;;;;;;;;;77.40;2227.20;;;;;;5070493;28;19962;-76
2021/12/15 08:21:53;;;;;;;;;;;77.50;2227.20;;;;;;5070698;28;19926;-74
2021/12/15 08:24:19;;;;;;;;;;;77.60;2227.20;;;;;;5071839;28;19904;-77
2021/12/15 08:26:44;;;;;;;;;;;77.70;2227.20;;;;;;5073515;28;19942;-77
2021/12/15 08:29:10;;;;;;;;;;;77.70;2227.20;;;;;;5076039;28;20297;-75
2021/12/15 08:31:36;;;;;;;;;;;77.20;2227.20;;;;;;5076875;28;20010;-76
2021/12/15 08:34:02;;;;;;;;;;;77.20;2227.20;;;;;;5089077;28;20307;-77
2021/12/15 08:36:27;;;;;;;;;;;77.30;2227.20;;;;;;5083801;28;19908;-75
2021/12/15 08:38:53;;;;;;;;;;;77.40;2227.20;;;;;;5103290;28;19927;-74
2021/12/15 08:41:20;;;;;;;;;;;77.50;2227.20;;;;;;5084873;28;20003;-74
2021/12/15 08:43:46;;;;;;;;;;;77.10;2227.20;;;;;;5082643;28;19919;-75
2021/12/15 08:46:16;;;;;;;;;;;76.80;2227.20;;;;;;5081589;28;19905;-75
2021/12/15 08:48:43;;;;;;;;;;;77.10;2227.20;;;;;;5085612;28;19916;-75
2021/12/15 08:51:09;;;;;;;;;;;77.20;2227.20;;;;;;5084390;28;19969;-75
2021/12/15 08:53:35;;;;;;;;;;;77.00;2227.20;;;;;;5084242;28;19916;-75
2021/12/15 08:56:00;;;;;;;;;;;51.60;2227.20;;;;;;5069227;28;19912;-75
2021/12/15 08:58:26;;;;;;;;;;;51.60;2227.20;;;;;;5073829;28;19905;-75
2021/12/15 09:00:53;;;;;;;;;;;52.00;2227.20;;;;;;5074851;28;20284;-75
2021/12/15 09:03:19;;;;;;;;;;;52.10;2227.20;;;;;;5075847;28;19908;-76
2021/12/15 09:05:44;;;;;;;;;;;76.80;2227.20;;;;;;5076109;28;19905;-75
2021/12/15 09:08:12;;;;;;;;;;;52.00;2227.20;;;;;;5075983;28;19915;-75
2021/12/15 09:10:40;;;;;;;;;;;51.90;2227.20;;;;;;5074477;28;19919;-75
2021/12/15 09:13:07;;;;;;;;;;;51.60;2227.20;;;;;;5074628;28;19934;-75
2021/12/15 09:15:33;;;;;;;;;;;51.40;2227.20;;;;;;5075837;28;20348;-75
2021/12/15 09:17:58;;;;;;;;;;;51.30;2227.20;;;;;;5075478;28;20380;-75
2021/12/15 09:20:27;;;;;;;;;;;51.70;2227.20;;;;;;5080804;28;19939;-75
2021/12/15 09:22:53;;;;;;;;;;;51.80;2227.20;;;;;;5081174;28;19915;-76
2021/12/15 09:25:18;;;;;;;;;;;51.90;2227.20;;;;;;5080342;28;19904;-74
2021/12/15 09:27:45;;;;;;;;;;;52.10;2227.20;;;;;;5083184;28;19908;-75
2021/12/15 09:30:12;;;;;;;;;;;76.90;2227.20;;;;;;5083720;28;20362;-75
2021/12/15 09:32:38;;;;;;;;;;;76.90;2227.20;;;;;;5086921;28;19904;-75
2021/12/15 09:35:05;;;;;;;;;;;77.00;2227.20;;;;;;5085155;28;19922;-76
2021/12/15 09:37:31;;;;;;;;;;;77.20;2227.20;;;;;;5083826;28;19908;-75
2021/12/15 09:39:57;;;;;;;;;;;77.20;2227.20;;;;;;5085342;28;20322;-75
2021/12/15 09:42:29;;;;;;;;;;;77.30;2227.20;;;;;;5078048;28;19905;-78
2021/12/15 09:45:01;;;;;;;;;;;76.90;2227.20;;;;;;5075375;28;20419;-74
2021/12/15 09:47:45;;;;;;;;;;;77.10;2227.20;;;;;;5075094;28;19909;-74
2021/12/15 10:04:43;;;;;;;;;;;76.90;2227.20;;;;;;5091885;28;20368;-75
2021/12/15 10:17:43;;;;;;;;;;;76.90;2227.20;;;;;;5072210;28;20329;-75
2021/12/15 10:20:12;;;;;;;;;;;77.00;2227.20;;;;;;5055150;28;19942;-77
2021/12/15 10:25:16;;;;;;;;;;;77.10;2227.20;;;;;;5072286;28;20274;-76
2021/12/15 10:27:54;;;;;;;;;;;77.20;2227.20;;;;;;5072599;28;19916;-75
2021/12/15 10:30:24;;;;;;;;;;;77.20;2227.20;;;;;;5072325;28;19904;-76
2021/12/15 10:32:52;;;;;;;;;;;77.20;2227.20;;;;;;5072449;28;19904;-76
2021/12/15 10:35:20;;;;;;;;;;;77.20;2227.20;;;;;;5055091;28;19942;-75
2021/12/15 10:38:04;;;;;;;;;;;77.30;2227.20;;;;;;5068776;28;19919;-76
2021/12/15 10:40:30;;;;;;;;;;;77.10;2227.20;;;;;;5070146;28;19909;-76
2021/12/15 10:43:03;;;;;;;;;;;77.40;2227.20;;;;;;5070592;28;19908;-76
2021/12/15 10:45:33;;;;;;;;;;;77.50;2227.20;;;;;;5053529;28;20308;-75
2021/12/15 10:48:01;;;;;;;;;;;77.60;2227.20;;;;;;5070572;28;20390;-76
2021/12/15 10:50:27;;;;;;;;;;;77.50;2227.20;;;;;;5070135;28;20325;-75
2021/12/15 10:52:57;;;;;;;;;;;77.60;2227.20;;;;;;5054008;28;19947;-75
2021/12/15 10:55:34;;;;;;;;;;;77.60;2227.20;;;;;;5069736;28;20507;-77
2021/12/15 10:58:00;;;;;;;;;;;77.40;2227.20;;;;;;5071511;28;19905;-76
2021/12/15 11:00:27;;;;;;;;;;;77.20;2227.20;;;;;;5071139;28;19908;-74
2021/12/15 11:03:02;;;;;;;;;;;77.20;2227.20;;;;;;5071180;28;19904;-76
2021/12/15 11:05:28;;;;;;;;;;;77.20;2227.20;;;;;;5072419;28;19904;-74
2021/12/15 11:07:55;;;;;;;;;;;77.00;2227.20;;;;;;5072341;28;20589;-77
2021/12/15 11:10:31;;;;;;;;;;;77.30;2227.20;;;;;;5072409;28;19912;-74
2021/12/15 11:13:00;;;;;;;;;;;77.40;2227.20;;;;;;5072162;28;19951;-78
2021/12/15 11:15:33;;;;;;;;;;;77.30;2227.20;;;;;;5070959;28;20282;-75
2021/12/15 11:17:59;;;;;;;;;;;77.40;2227.20;;;;;;5073390;28;19963;-76
2021/12/15 11:20:29;;;;;;;;;;;77.30;2227.20;;;;;;5071192;28;19916;-74
2021/12/15 11:22:58;;;;;;;;;;;77.50;2227.20;;;;;;5072261;28;19904;-76
2021/12/15 11:25:29;;;;;;;;;;;102.40;2227.20;;;;;;5072057;28;20002;-76
2021/12/15 11:28:03;;;;;;;;;;;77.70;2227.20;;;;;;5073407;28;19924;-75
2021/12/15 11:30:31;;;;;;;;;;;102.50;2227.20;;;;;;5073325;28;19910;-75
2021/12/15 11:32:59;;;;;;;;;;;102.40;2227.20;;;;;;5072974;28;19904;-78
2021/12/15 11:35:26;;;;;;;;;;;102.60;2227.20;;;;;;5073354;28;19965;-74
2021/12/15 11:38:04;;;;;;;;;;;102.60;2227.20;;;;;;5073089;28;20254;-74
2021/12/15 11:40:30;;;;;;;;;;;102.60;2227.20;;;;;;5071910;28;19912;-75
2021/12/15 11:42:55;;;;;;;;;;;77.60;2227.20;;;;;;5072946;28;19909;-76
2021/12/15 11:45:22;;;;;;;;;;;77.50;2227.20;;;;;;5071562;28;20418;-76
2021/12/15 11:47:47;;;;;;;;;;;102.40;2227.20;;;;;;5073047;28;20365;-74
2021/12/15 11:50:15;;;;;;;;;;;102.50;2227.20;;;;;;5072751;28;19909;-77
2021/12/15 11:52:43;;;;;;;;;;;102.50;2227.20;;;;;;5073060;28;19912;-75
2021/12/15 11:55:25;;;;;;;;;;;102.60;2227.20;;;;;;5071393;28;19913;-76
2021/12/15 11:57:51;;;;;;;;;;;102.70;2227.20;;;;;;5072838;28;19934;-74
2021/12/15 12:00:19;;;;;;;;;;;102.70;2227.20;;;;;;5072659;28;19904;-74
2021/12/15 12:02:51;;;;;;;;;;;102.40;2227.20;;;;;;5072593;28;20262;-75
2021/12/15 12:05:28;;;;;;;;;;;102.50;2227.20;;;;;;5072907;28;19909;-74
2021/12/15 12:07:57;;;;;;;;;;;102.70;2227.20;;;;;;5072698;28;19912;-74
2021/12/15 12:10:25;;;;;;;;;;;102.80;2227.20;;;;;;5071565;28;19940;-75
2021/12/15 12:12:55;;;;;;;;;;;102.80;2227.20;;;;;;5071566;28;19908;-74
2021/12/15 12:15:23;;;;;;;;;;;102.80;2227.20;;;;;;5069313;28;19919;-74
2021/12/15 12:17:50;;;;;;;;;;;102.70;2227.20;;;;;;5070868;28;19916;-75
2021/12/15 12:20:18;;;;;;;;;;;102.80;2227.20;;;;;;5079896;28;20362;-74
2021/12/15 12:22:45;;;;;;;;;;;102.60;2227.20;;;;;;5070287;28;19913;-77
2021/12/15 12:25:16;;;;;;;;;;;102.60;2227.20;;;;;;5068777;28;20413;-76
2021/12/15 12:27:42;;;;;;;;;;;102.60;2227.20;;;;;;5071463;28;19951;-76
2021/12/15 12:30:13;;;;;;;;;;;102.70;2227.20;;;;;;5071162;28;19908;-76
2021/12/15 12:32:39;;;;;;;;;;;102.90;2227.20;;;;;;5073325;28;20349;-75
2021/12/15 12:35:07;;;;;;;;;;;102.70;2227.20;;;;;;5075277;28;19912;-75
2021/12/15 12:37:33;;;;;;;;;;;102.60;2227.20;;;;;;5073784;28;20023;-76
2021/12/15 12:40:04;;;;;;;;;;;102.70;2227.20;;;;;;5075844;28;20371;-74
2021/12/15 12:42:32;;;;;;;;;;;102.90;2227.20;;;;;;5074988;28;19904;-74
2021/12/15 12:45:17;;;;;;;;;;;102.90;2227.20;;;;;;5074220;28;19958;-75
2021/12/15 13:01:08;;;;;;;;;;;103.10;2227.20;;;;;;5075996;28;20284;-74
2021/12/15 13:03:36;;;;;;;;;;;103.10;2227.20;;;;;;5074773;28;19904;-75
2021/12/15 13:06:28;;;;;;;;;;;102.90;2227.20;;;;;;5075958;28;19904;-76
2021/12/15 13:09:06;;;;;;;;;;;103.10;2227.20;;;;;;5073789;28;20261;-74
2021/12/15 13:11:34;;;;;;;;;;;103.00;2227.20;;;;;;5074787;28;20268;-74
2021/12/15 13:14:08;;;;;;;;;;;103.20;2227.20;;;;;;5075796;28;19912;-74
2021/12/15 13:16:52;;;;;;;;;;;103.10;2227.20;;;;;;5075863;28;19908;-76
2021/12/15 13:19:20;;;;;;;;;;;103.20;2227.20;;;;;;5074722;28;19951;-75
2021/12/15 13:21:48;;;;;;;;;;;103.20;2227.20;;;;;;5075009;28;19912;-76
2021/12/15 13:28:40;;;;;;;;;;;103.10;2227.20;;;;;;5074690;28;20376;-74
2021/12/15 13:30:02;;;;;;;;;;;103.20;2227.20;;;;;;5072645;28;20289;-74
2021/12/15 13:32:31;;;;;;;;;;;103.20;2227.20;;;;;;5073682;28;19973;-77
2021/12/15 13:34:56;;;;;;;;;;;103.30;2227.20;;;;;;5073265;28;19920;-76
2021/12/15 13:37:40;;;;;;;;;;;103.30;2227.20;;;;;;5074248;28;19910;-76
2021/12/15 13:40:09;;;;;;;;;;;103.30;2227.20;;;;;;5072012;28;19912;-75
2021/12/15 13:42:37;;;;;;;;;;;103.20;2227.20;;;;;;5066226;28;19909;-75
2021/12/15 13:45:03;;;;;;;;;;;103.10;2227.20;;;;;;5068800;28;19946;-74
2021/12/15 13:47:29;;;;;;;;;;;103.10;2227.20;;;;;;5073564;28;19923;-75
2021/12/15 13:49:54;;;;;;;;;;;103.00;2227.20;;;;;;5072785;28;19909;-74
2021/12/15 13:52:37;;;;;;;;;;;103.00;2227.20;;;;;;5074388;28;19975;-75
2021/12/15 13:55:05;;;;;;;;;;;103.10;2227.20;;;;;;5090319;28;19917;-77
2021/12/15 13:57:31;;;;;;;;;;;103.10;2227.20;;;;;;5091944;28;19905;-74
2021/12/15 14:00:03;;;;;;;;;;;103.10;2227.20;;;;;;5075142;28;19911;-76
2021/12/15 14:02:40;;;;;;;;;;;103.00;2227.20;;;;;;5077198;28;19913;-75
2021/12/15 14:05:21;;;;;;;;;;;103.00;2227.20;;;;;;5075346;28;19912;-74
2021/12/15 14:08:07;;;;;;;;;;;103.00;2227.20;;;;;;5071457;28;19908;-74
2021/12/15 14:10:33;;;;;;;;;;;103.00;2227.20;;;;;;5061393;28;19905;-74
2021/12/15 14:12:59;;;;;;;;;;;102.90;2227.20;;;;;;5071120;28;19912;-77
2021/12/15 14:15:25;;;;;;;;;;;102.80;2227.20;;;;;;5072304;28;19916;-75
2021/12/15 14:17:55;;;;;;;;;;;102.70;2227.20;;;;;;5073255;28;20345;-74
2021/12/15 14:20:22;;;;;;;;;;;102.60;2227.20;;;;;;5073568;28;19916;-76
2021/12/15 14:22:54;;;;;;;;;;;102.60;2227.20;;;;;;5073638;28;19943;-76
2021/12/15 14:25:19;;;;;;;;;;;102.70;2227.20;;;;;;5070260;28;19974;-76
2021/12/15 14:27:45;;;;;;;;;;;102.80;2227.20;;;;;;5060800;28;19909;-77
2021/12/15 14:30:12;;;;;;;;;;;102.80;2227.20;;;;;;5071907;28;19958;-77
2021/12/15 14:32:37;;;;;;;;;;;103.00;2227.20;;;;;;5072064;28;19908;-74
2021/12/15 14:35:03;;;;;;;;;;;102.90;2227.20;;;;;;5072106;28;20259;-76
2021/12/15 14:37:29;;;;;;;;;;;102.90;2227.20;;;;;;5072939;28;19912;-75
2021/12/15 14:39:55;;;;;;;;;;;102.90;2227.20;;;;;;5071874;28;19995;-74
2021/12/15 14:42:25;;;;;;;;;;;102.90;2227.20;;;;;;5072824;28;20346;-77
2021/12/15 14:44:53;;;;;;;;;;;102.70;2227.20;;;;;;5072141;28;20289;-78
2021/12/15 14:47:20;;;;;;;;;;;102.60;2227.20;;;;;;5073112;28;20003;-78
2021/12/15 14:49:55;;;;;;;;;;;102.60;2227.20;;;;;;5073029;28;19916;-76
2021/12/15 14:52:29;;;;;;;;;;;102.50;2227.20;;;;;;5071244;28;19904;-77
2021/12/15 14:54:56;;;;;;;;;;;102.50;2227.20;;;;;;5072742;28;19981;-75
2021/12/15 14:57:23;;;;;;;;;;;102.50;2227.20;;;;;;5071764;28;19904;-75
2021/12/15 14:59:53;;;;;;;;;;;102.50;2227.20;;;;;;5070995;28;19919;-75
2021/12/15 15:02:31;;;;;;;;;;;102.50;2227.20;;;;;;5072538;28;19936;-75
2021/12/15 15:05:02;;;;;;;;;;;102.50;2227.20;;;;;;5069941;28;20050;-73
2021/12/15 15:07:31;;;;;;;;;;;102.50;2227.20;;;;;;5063605;28;20062;-76
2021/12/15 15:09:57;;;;;;;;;;;102.50;2227.20;;;;;;5071553;28;19999;-75
2021/12/15 15:12:25;;;;;;;;;;;102.60;2227.20;;;;;;5070615;28;19958;-75
2021/12/15 15:14:55;;;;;;;;;;;102.60;2227.20;;;;;;5072901;28;20018;-76
2021/12/15 15:17:32;;;;;;;;;;;102.60;2227.20;;;;;;5077825;28;20358;-77
2021/12/15 15:19:59;;;;;;;;;;;102.50;2227.20;;;;;;5071162;28;19916;-76
2021/12/15 15:22:27;;;;;;;;;;;102.50;2227.20;;;;;;5061575;28;19912;-77